sensor_id;sensor_type;location;lat;lon;timestamp;pressure;altitude;pressure_sealevel;temperature;humidity
9110;BME280;4590;51.462;6.692;2023-10-08T00:01:08;101993.91;;;20.04;57.92
9110;BME280;4590;51.462;6.692;2023-10-08T00:03:36;102006.56;;;20.02;58.17
9110;BME280;4590;51.462;6.692;2023-10-08T00:06:03;102021.69;;;20.01;58.01
9110;BME280;4590;51.462;6.692;2023-10-08T00:08:31;102028.44;;;20.00;57.67
9110;BME280;4590;51.462;6.692;2023-10-08T00:10:57;102012.88;;;19.99;57.96
9110;BME280;4590;51.462;6.692;2023-10-08T00:13:22;102018.78;;;19.97;58.24
9110;BME280;4590;51.462;6.692;2023-10-08T00:15:47;102001.06;;;19.93;58.07
9110;BME280;4590;51.462;6.692;2023-10-08T00:18:19;102008.63;;;19.92;58.06
9110;BME280;4590;51.462;6.692;2023-10-08T00:20:45;102013.41;;;19.92;57.74
9110;BME280;4590;51.462;6.692;2023-10-08T00:23:21;102036.91;;;19.91;57.96
9110;BME280;4590;51.462;6.692;2023-10-08T00:25:46;102028.84;;;19.89;57.81
9110;BME280;4590;51.462;6.692;2023-10-08T00:28:12;102029.19;;;19.88;58.45
9110;BME280;4590;51.462;6.692;2023-10-08T00:30:42;102023.94;;;19.86;57.94
9110;BME280;4590;51.462;6.692;2023-10-08T00:33:07;102023.94;;;19.86;58.19
9110;BME280;4590;51.462;6.692;2023-10-08T00:35:36;102026.72;;;19.86;58.15
9110;BME280;4590;51.462;6.692;2023-10-08T00:38:02;102038.56;;;19.83;58.29
9110;BME280;4590;51.462;6.692;2023-10-08T00:40:38;102041.72;;;19.82;58.31
9110;BME280;4590;51.462;6.692;2023-10-08T00:43:05;102030.41;;;19.78;58.43
9110;BME280;4590;51.462;6.692;2023-10-08T00:45:35;102038.31;;;19.76;58.44
9110;BME280;4590;51.462;6.692;2023-10-08T00:48:00;102034.19;;;19.74;58.63
9110;BME280;4590;51.462;6.692;2023-10-08T00:50:26;102042.09;;;19.72;58.97
9110;BME280;4590;51.462;6.692;2023-10-08T00:52:56;102048.84;;;19.71;58.76
9110;BME280;4590;51.462;6.692;2023-10-08T00:55:34;102038.34;;;19.68;58.75
9110;BME280;4590;51.462;6.692;2023-10-08T00:58:00;102038.69;;;19.66;58.64
9110;BME280;4590;51.462;6.692;2023-10-08T01:00:34;102042.31;;;19.67;58.41
9110;BME280;4590;51.462;6.692;2023-10-08T01:03:05;102046.59;;;19.64;58.95
9110;BME280;4590;51.462;6.692;2023-10-08T01:05:39;102034.94;;;19.62;58.67
9110;BME280;4590;51.462;6.692;2023-10-08T01:08:11;102044.47;;;19.61;58.66
9110;BME280;4590;51.462;6.692;2023-10-08T01:10:48;102033.97;;;19.58;59.04
9110;BME280;4590;51.462;6.692;2023-10-08T01:13:14;102054.66;;;19.57;58.85
9110;BME280;4590;51.462;6.692;2023-10-08T01:15:46;102062.22;;;19.56;58.88
9110;BME280;4590;51.462;6.692;2023-10-08T01:18:15;102056.97;;;19.55;59.17
9110;BME280;4590;51.462;6.692;2023-10-08T01:20:41;102053.34;;;19.54;58.58
9110;BME280;4590;51.462;6.692;2023-10-08T01:23:12;102054.84;;;19.52;58.88
9110;BME280;4590;51.462;6.692;2023-10-08T01:25:46;102066.66;;;19.49;58.96
9110;BME280;4590;51.462;6.692;2023-10-08T01:28:15;102057.81;;;19.47;58.69
9110;BME280;4590;51.462;6.692;2023-10-08T01:30:58;102061.75;;;19.46;59.04
9110;BME280;4590;51.462;6.692;2023-10-08T01:33:29;102057.66;;;19.43;59.28
9110;BME280;4590;51.462;6.692;2023-10-08T01:36:02;102061.59;;;19.42;59.38
9110;BME280;4590;51.462;6.692;2023-10-08T01:38:32;102059.94;;;19.41;58.86
9110;BME280;4590;51.462;6.692;2023-10-08T01:40:58;102059.47;;;19.39;59.15
9110;BME280;4590;51.462;6.692;2023-10-08T01:43:28;102055.03;;;19.38;59.41
9110;BME280;4590;51.462;6.692;2023-10-08T01:45:54;102056.53;;;19.36;59.20
9110;BME280;4590;51.462;6.692;2023-10-08T01:48:19;102047.69;;;19.34;59.34
9110;BME280;4590;51.462;6.692;2023-10-08T01:50:51;102046.38;;;19.31;59.43
9110;BME280;4590;51.462;6.692;2023-10-08T01:53:18;102053.09;;;19.30;59.39
9110;BME280;4590;51.462;6.692;2023-10-08T01:55:45;102045.38;;;19.27;59.23
9110;BME280;4590;51.462;6.692;2023-10-08T01:58:14;102060.50;;;19.26;59.29
9110;BME280;4590;51.462;6.692;2023-10-08T02:00:47;102048.50;;;19.25;59.22
9110;BME280;4590;51.462;6.692;2023-10-08T02:03:13;102045.22;;;19.23;59.43
9110;BME280;4590;51.462;6.692;2023-10-08T02:05:40;102041.13;;;19.21;59.03
9110;BME280;4590;51.462;6.692;2023-10-08T02:08:07;102041.50;;;19.19;58.96
9110;BME280;4590;51.462;6.692;2023-10-08T02:10:32;102045.75;;;19.17;59.14
9110;BME280;4590;51.462;6.692;2023-10-08T02:12:58;102050.84;;;19.15;59.18
9110;BME280;4590;51.462;6.692;2023-10-08T02:15:23;102051.50;;;19.12;59.96
9110;BME280;4590;51.462;6.692;2023-10-08T02:17:48;102043.47;;;19.10;59.33
9110;BME280;4590;51.462;6.692;2023-10-08T02:20:14;102034.94;;;19.07;59.30
9110;BME280;4590;51.462;6.692;2023-10-08T02:22:41;102034.94;;;19.07;58.90
9110;BME280;4590;51.462;6.692;2023-10-08T02:25:06;102027.59;;;19.02;59.44
9110;BME280;4590;51.462;6.692;2023-10-08T02:27:34;102036.28;;;19.01;59.15
9110;BME280;4590;51.462;6.692;2023-10-08T02:29:59;102028.25;;;18.99;59.44
9110;BME280;4590;51.462;6.692;2023-10-08T02:32:24;102023.00;;;18.98;59.67
9110;BME280;4590;51.462;6.692;2023-10-08T02:34:49;102027.28;;;18.95;59.18
9110;BME280;4590;51.462;6.692;2023-10-08T02:37:15;102064.38;;;18.87;59.51
9110;BME280;4590;51.462;6.692;2023-10-08T02:39:41;102046.00;;;18.86;59.16
9110;BME280;4590;51.462;6.692;2023-10-08T02:42:06;102045.50;;;18.84;59.35
9110;BME280;4590;51.462;6.692;2023-10-08T02:44:35;102031.91;;;18.82;58.93
9110;BME280;4590;51.462;6.692;2023-10-08T02:47:06;102022.06;;;18.76;59.14
9110;BME280;4590;51.462;6.692;2023-10-08T02:49:33;102032.88;;;18.78;58.85
9110;BME280;4590;51.462;6.692;2023-10-08T02:52:00;102043.88;;;18.74;59.14
9110;BME280;4590;51.462;6.692;2023-10-08T02:54:25;102066.53;;;18.73;59.30
9110;BME280;4590;51.462;6.692;2023-10-08T02:56:57;102072.75;;;18.70;59.23
9110;BME280;4590;51.462;6.692;2023-10-08T02:59:28;102087.34;;;18.67;59.30
9110;BME280;4590;51.462;6.692;2023-10-08T03:01:54;102077.34;;;18.66;59.40
9110;BME280;4590;51.462;6.692;2023-10-08T03:04:22;102077.69;;;18.64;59.08
9110;BME280;4590;51.462;6.692;2023-10-08T03:06:50;102067.16;;;18.61;59.14
9110;BME280;4590;51.462;6.692;2023-10-08T03:09:17;102081.13;;;18.61;59.12
9110;BME280;4590;51.462;6.692;2023-10-08T03:11:46;102086.69;;;18.61;58.90
9110;BME280;4590;51.462;6.692;2023-10-08T03:14:13;102088.47;;;18.57;59.14
9110;BME280;4590;51.462;6.692;2023-10-08T03:16:42;102110.28;;;18.55;59.01
9110;BME280;4590;51.462;6.692;2023-10-08T03:19:07;102103.72;;;18.51;59.25
9110;BME280;4590;51.462;6.692;2023-10-08T03:21:33;102105.34;;;18.52;59.05
9110;BME280;4590;51.462;6.692;2023-10-08T03:24:13;102114.88;;;18.51;58.87
9110;BME280;4590;51.462;6.692;2023-10-08T03:26:54;102112.91;;;18.51;58.86
9110;BME280;4590;51.462;6.692;2023-10-08T03:29:21;102112.56;;;18.53;58.78
9110;BME280;4590;51.462;6.692;2023-10-08T03:31:46;102104.53;;;18.51;59.21
9110;BME280;4590;51.462;6.692;2023-10-08T03:34:12;102085.34;;;18.50;58.71
9110;BME280;4590;51.462;6.692;2023-10-08T03:36:40;102071.41;;;18.50;58.81
9110;BME280;4590;51.462;6.692;2023-10-08T03:39:15;102078.47;;;18.47;58.90
9110;BME280;4590;51.462;6.692;2023-10-08T03:41:41;102048.13;;;18.46;59.11
9110;BME280;4590;51.462;6.692;2023-10-08T03:44:07;102091.09;;;18.45;58.83
9110;BME280;4590;51.462;6.692;2023-10-08T03:46:38;102075.81;;;18.42;59.24
9110;BME280;4590;51.462;6.692;2023-10-08T03:49:12;102063.38;;;18.40;59.16
9110;BME280;4590;51.462;6.692;2023-10-08T03:51:50;102044.38;;;18.33;59.07
9110;BME280;4590;51.462;6.692;2023-10-08T03:54:22;102090.09;;;18.32;58.95
9110;BME280;4590;51.462;6.692;2023-10-08T03:57:01;102107.44;;;18.29;59.47
9110;BME280;4590;51.462;6.692;2023-10-08T03:59:26;102100.25;;;18.28;59.65
9110;BME280;4590;51.462;6.692;2023-10-08T04:01:59;102085.81;;;18.26;59.49
9110;BME280;4590;51.462;6.692;2023-10-08T04:04:33;102095.34;;;18.25;59.69
9110;BME280;4590;51.462;6.692;2023-10-08T04:07:22;102098.13;;;18.25;59.32
9110;BME280;4590;51.462;6.692;2023-10-08T04:10:10;102092.56;;;18.25;59.62
9110;BME280;4590;51.462;6.692;2023-10-08T04:12:38;102104.03;;;18.23;59.30
9110;BME280;4590;51.462;6.692;2023-10-08T04:15:09;102096.50;;;18.24;59.68
9110;BME280;4590;51.462;6.692;2023-10-08T04:17:37;102116.81;;;18.25;59.26
9110;BME280;4590;51.462;6.692;2023-10-08T04:20:09;102117.13;;;18.23;59.78
9110;BME280;4590;51.462;6.692;2023-10-08T04:22:55;102112.38;;;18.23;59.37
9110;BME280;4590;51.462;6.692;2023-10-08T04:25:20;102102.38;;;18.22;59.28
9110;BME280;4590;51.462;6.692;2023-10-08T04:27:46;102103.53;;;18.21;59.33
9110;BME280;4590;51.462;6.692;2023-10-08T04:30:14;102095.50;;;18.20;59.35
9110;BME280;4590;51.462;6.692;2023-10-08T04:32:40;102091.69;;;18.16;59.37
9110;BME280;4590;51.462;6.692;2023-10-08T04:35:05;102096.44;;;18.15;59.38
9110;BME280;4590;51.462;6.692;2023-10-08T04:37:33;102097.09;;;18.12;60.12
9110;BME280;4590;51.462;6.692;2023-10-08T04:39:58;102102.66;;;18.12;59.57
9110;BME280;4590;51.462;6.692;2023-10-08T04:42:24;102101.84;;;18.12;59.68
9110;BME280;4590;51.462;6.692;2023-10-08T04:44:52;102105.78;;;18.11;60.13
9110;BME280;4590;51.462;6.692;2023-10-08T04:47:18;102102.53;;;18.09;59.85
9110;BME280;4590;51.462;6.692;2023-10-08T04:49:56;102105.31;;;18.09;59.57
9110;BME280;4590;51.462;6.692;2023-10-08T04:52:22;102121.53;;;18.07;59.85
9110;BME280;4590;51.462;6.692;2023-10-08T04:54:50;102124.31;;;18.07;59.88
9110;BME280;4590;51.462;6.692;2023-10-08T04:57:19;102133.47;;;18.07;60.10
9110;BME280;4590;51.462;6.692;2023-10-08T04:59:47;102139.06;;;18.07;60.07
9110;BME280;4590;51.462;6.692;2023-10-08T05:02:15;102144.94;;;18.06;60.26
9110;BME280;4590;51.462;6.692;2023-10-08T05:04:49;102148.88;;;18.05;60.18
9110;BME280;4590;51.462;6.692;2023-10-08T05:07:21;102151.16;;;18.03;60.14
9110;BME280;4590;51.462;6.692;2023-10-08T05:09:47;102154.25;;;18.01;60.83
9110;BME280;4590;51.462;6.692;2023-10-08T05:12:12;102159.50;;;18.03;60.43
9110;BME280;4590;51.462;6.692;2023-10-08T05:14:56;102169.50;;;18.04;60.25
9110;BME280;4590;51.462;6.692;2023-10-08T05:17:45;102171.16;;;18.05;60.67
9110;BME280;4590;51.462;6.692;2023-10-08T05:20:17;102164.44;;;18.06;60.20
9110;BME280;4590;51.462;6.692;2023-10-08T05:22:55;102163.81;;;18.09;60.48
9110;BME280;4590;51.462;6.692;2023-10-08T05:25:42;102177.38;;;18.10;60.11
9110;BME280;4590;51.462;6.692;2023-10-08T05:28:26;102169.84;;;18.11;60.33
9110;BME280;4590;51.462;6.692;2023-10-08T05:30:52;102158.22;;;18.09;60.54
9110;BME280;4590;51.462;6.692;2023-10-08T05:33:36;102138.38;;;18.10;60.00
9110;BME280;4590;51.462;6.692;2023-10-08T05:36:20;102148.72;;;18.10;60.01
9110;BME280;4590;51.462;6.692;2023-10-08T05:38:53;102138.72;;;18.09;60.14
9110;BME280;4590;51.462;6.692;2023-10-08T05:41:26;102143.81;;;18.07;60.11
9110;BME280;4590;51.462;6.692;2023-10-08T05:44:07;102152.47;;;18.05;60.34
9110;BME280;4590;51.462;6.692;2023-10-08T05:46:45;102140.50;;;18.05;60.78
9110;BME280;4590;51.462;6.692;2023-10-08T05:49:36;102141.97;;;18.02;60.52
9110;BME280;4590;51.462;6.692;2023-10-08T05:52:17;102135.59;;;18.02;60.30
9110;BME280;4590;51.462;6.692;2023-10-08T05:55:06;102137.03;;;17.99;60.43
9110;BME280;4590;51.462;6.692;2023-10-08T05:57:47;102156.03;;;17.97;60.77
9110;BME280;4590;51.462;6.692;2023-10-08T06:00:17;102147.19;;;17.95;60.72
9110;BME280;4590;51.462;6.692;2023-10-08T06:02:54;102155.88;;;17.94;60.25
9110;BME280;4590;51.462;6.692;2023-10-08T06:05:34;102154.25;;;17.93;60.83
9110;BME280;4590;51.462;6.692;2023-10-08T06:08:08;102154.56;;;17.91;60.96
9110;BME280;4590;51.462;6.692;2023-10-08T06:10:38;102135.38;;;17.90;61.10
9110;BME280;4590;51.462;6.692;2023-10-08T06:13:10;102162.09;;;17.91;60.99
9110;BME280;4590;51.462;6.692;2023-10-08T06:18:13;102162.09;;;17.91;60.88
9110;BME280;4590;51.462;6.692;2023-10-08T06:20:39;102173.22;;;17.91;61.33
9110;BME280;4590;51.462;6.692;2023-10-08T06:23:08;102187.16;;;17.91;61.54
9110;BME280;4590;51.462;6.692;2023-10-08T06:25:33;102179.94;;;17.90;61.51
9110;BME280;4590;51.462;6.692;2023-10-08T06:28:10;102175.31;;;17.85;61.95
9110;BME280;4590;51.462;6.692;2023-10-08T06:30:36;102182.84;;;17.84;61.64
9110;BME280;4590;51.462;6.692;2023-10-08T06:33:05;102176.16;;;17.85;61.52
9110;BME280;4590;51.462;6.692;2023-10-08T06:35:31;102179.75;;;17.86;61.65
9110;BME280;4590;51.462;6.692;2023-10-08T06:37:58;102181.72;;;17.85;61.62
9110;BME280;4590;51.462;6.692;2023-10-08T06:40:25;102185.00;;;17.87;61.49
9110;BME280;4590;51.462;6.692;2023-10-08T06:43:03;102161.91;;;17.87;61.34
9110;BME280;4590;51.462;6.692;2023-10-08T06:45:37;102187.78;;;17.87;61.34
9110;BME280;4590;51.462;6.692;2023-10-08T06:48:02;102189.94;;;17.91;61.36
9110;BME280;4590;51.462;6.692;2023-10-08T06:50:31;102207.16;;;17.93;61.44
9110;BME280;4590;51.462;6.692;2023-10-08T06:53:01;102215.19;;;17.94;61.91
9110;BME280;4590;51.462;6.692;2023-10-08T06:55:31;102221.22;;;17.96;61.60
9110;BME280;4590;51.462;6.692;2023-10-08T06:57:56;102220.91;;;17.98;61.23
9110;BME280;4590;51.462;6.692;2023-10-08T07:00:21;102219.78;;;17.99;62.12
9110;BME280;4590;51.462;6.692;2023-10-08T07:03:03;102219.13;;;18.02;62.19
9110;BME280;4590;51.462;6.692;2023-10-08T07:05:28;102216.84;;;18.04;61.57
9110;BME280;4590;51.462;6.692;2023-10-08T07:07:54;102231.09;;;18.02;61.55
9110;BME280;4590;51.462;6.692;2023-10-08T07:10:19;102231.59;;;18.04;61.55
9110;BME280;4590;51.462;6.692;2023-10-08T07:12:45;102253.56;;;18.06;61.51
9110;BME280;4590;51.462;6.692;2023-10-08T07:15:11;102260.78;;;18.07;61.60
9110;BME280;4590;51.462;6.692;2023-10-08T07:17:38;102270.28;;;18.06;61.24
9110;BME280;4590;51.462;6.692;2023-10-08T07:20:06;102261.59;;;18.07;61.11
9110;BME280;4590;51.462;6.692;2023-10-08T07:22:38;102279.16;;;18.08;61.56
9110;BME280;4590;51.462;6.692;2023-10-08T07:25:04;102264.41;;;18.07;62.10
9110;BME280;4590;51.462;6.692;2023-10-08T07:27:33;102262.13;;;18.09;62.34
9110;BME280;4590;51.462;6.692;2023-10-08T07:30:02;102253.09;;;18.12;62.60
9110;BME280;4590;51.462;6.692;2023-10-08T07:32:35;102249.66;;;18.15;62.87
9110;BME280;4590;51.462;6.692;2023-10-08T07:35:00;102252.63;;;18.19;62.70
9110;BME280;4590;51.462;6.692;2023-10-08T07:37:57;102244.78;;;18.21;62.47
9110;BME280;4590;51.462;6.692;2023-10-08T07:40:22;102249.72;;;18.24;61.99
9110;BME280;4590;51.462;6.692;2023-10-08T07:42:54;102251.38;;;18.25;61.78
9110;BME280;4590;51.462;6.692;2023-10-08T07:45:19;102264.13;;;18.26;62.04
9110;BME280;4590;51.462;6.692;2023-10-08T07:47:46;102264.13;;;18.26;62.67
9110;BME280;4590;51.462;6.692;2023-10-08T07:50:12;102269.69;;;18.26;62.87
9110;BME280;4590;51.462;6.692;2023-10-08T07:52:38;102276.91;;;18.27;63.13
9110;BME280;4590;51.462;6.692;2023-10-08T07:55:03;102262.66;;;18.29;63.75
9110;BME280;4590;51.462;6.692;2023-10-08T07:57:31;102259.88;;;18.29;63.57
9110;BME280;4590;51.462;6.692;2023-10-08T07:59:56;102252.53;;;18.33;63.37
9110;BME280;4590;51.462;6.692;2023-10-08T08:02:41;102249.94;;;18.36;63.34
9110;BME280;4590;51.462;6.692;2023-10-08T08:05:07;102268.94;;;18.43;63.32
9110;BME280;4590;51.462;6.692;2023-10-08T08:07:32;102276.03;;;18.49;63.90
9110;BME280;4590;51.462;6.692;2023-10-08T08:09:57;102281.47;;;18.54;63.29
9110;BME280;4590;51.462;6.692;2023-10-08T08:12:26;102286.09;;;18.58;63.45
9110;BME280;4590;51.462;6.692;2023-10-08T08:14:53;102277.59;;;18.64;62.61
9110;BME280;4590;51.462;6.692;2023-10-08T08:17:19;102282.84;;;18.65;62.59
9110;BME280;4590;51.462;6.692;2023-10-08T08:19:45;102292.84;;;18.66;64.67
9110;BME280;4590;51.462;6.692;2023-10-08T08:22:12;102293.53;;;18.72;65.43
9110;BME280;4590;51.462;6.692;2023-10-08T08:24:40;102300.41;;;18.74;64.50
9110;BME280;4590;51.462;6.692;2023-10-08T08:27:09;102298.94;;;18.77;64.00
9110;BME280;4590;51.462;6.692;2023-10-08T08:29:49;102300.75;;;18.73;64.08
9110;BME280;4590;51.462;6.692;2023-10-08T08:32:14;102305.66;;;18.76;63.29
9110;BME280;4590;51.462;6.692;2023-10-08T08:34:41;102303.19;;;18.74;62.61
9110;BME280;4590;51.462;6.692;2023-10-08T08:37:08;102299.94;;;18.72;63.27
9110;BME280;4590;51.462;6.692;2023-10-08T08:39:34;102294.34;;;18.72;63.53
9110;BME280;4590;51.462;6.692;2023-10-08T08:42:01;102287.59;;;18.73;63.28
9110;BME280;4590;51.462;6.692;2023-10-08T08:44:29;102297.59;;;18.74;63.47
9110;BME280;4590;51.462;6.692;2023-10-08T08:46:55;102298.28;;;18.71;63.88
9110;BME280;4590;51.462;6.692;2023-10-08T08:49:23;102303.19;;;18.74;62.97
9110;BME280;4590;51.462;6.692;2023-10-08T08:51:48;102302.38;;;18.74;63.66
9110;BME280;4590;51.462;6.692;2023-10-08T08:54:18;102297.97;;;18.73;63.62
9110;BME280;4590;51.462;6.692;2023-10-08T08:56:44;102304.31;;;18.73;63.31
9110;BME280;4590;51.462;6.692;2023-10-08T08:59:09;102310.25;;;18.72;63.66
9110;BME280;4590;51.462;6.692;2023-10-08T09:01:39;102319.59;;;18.67;64.03
9110;BME280;4590;51.462;6.692;2023-10-08T09:04:05;102319.41;;;18.64;64.21
9110;BME280;4590;51.462;6.692;2023-10-08T09:06:32;102315.88;;;18.49;64.79
9110;BME280;4590;51.462;6.692;2023-10-08T09:08:59;102330.38;;;18.60;64.41
9110;BME280;4590;51.462;6.692;2023-10-08T09:11:37;102349.88;;;18.60;64.21
9110;BME280;4590;51.462;6.692;2023-10-08T09:14:07;102340.81;;;18.54;65.70
9110;BME280;4590;51.462;6.692;2023-10-08T09:16:34;102344.56;;;18.50;65.98
9110;BME280;4590;51.462;6.692;2023-10-08T09:18:59;102348.28;;;18.37;66.26
9110;BME280;4590;51.462;6.692;2023-10-08T09:21:26;102355.59;;;18.24;66.74
9110;BME280;4590;51.462;6.692;2023-10-08T09:23:52;102350.50;;;18.26;65.07
9110;BME280;4590;51.462;6.692;2023-10-08T09:26:22;102355.19;;;18.08;66.40
9110;BME280;4590;51.462;6.692;2023-10-08T09:28:48;102348.59;;;18.04;65.96
9110;BME280;4590;51.462;6.692;2023-10-08T09:31:13;102358.66;;;17.92;67.07
9110;BME280;4590;51.462;6.692;2023-10-08T09:33:39;102372.19;;;17.84;67.40
9110;BME280;4590;51.462;6.692;2023-10-08T09:36:05;102378.03;;;17.74;67.42
9110;BME280;4590;51.462;6.692;2023-10-08T09:38:34;102377.22;;;17.60;67.28
9110;BME280;4590;51.462;6.692;2023-10-08T09:41:00;102377.94;;;17.52;68.03
9110;BME280;4590;51.462;6.692;2023-10-08T09:43:28;102379.84;;;17.43;68.08
9110;BME280;4590;51.462;6.692;2023-10-08T09:46:06;102381.19;;;17.32;66.77
9110;BME280;4590;51.462;6.692;2023-10-08T09:48:34;102376.16;;;17.20;68.83
9110;BME280;4590;51.462;6.692;2023-10-08T09:51:02;102372.16;;;17.26;67.66
9110;BME280;4590;51.462;6.692;2023-10-08T09:53:34;102371.88;;;17.14;69.20
9110;BME280;4590;51.462;6.692;2023-10-08T09:56:13;102361.16;;;17.07;68.96
9110;BME280;4590;51.462;6.692;2023-10-08T09:58:39;102355.59;;;17.07;68.85
9110;BME280;4590;51.462;6.692;2023-10-08T10:01:04;102362.50;;;17.10;68.62
9110;BME280;4590;51.462;6.692;2023-10-08T10:03:30;102366.91;;;17.11;68.17
9110;BME280;4590;51.462;6.692;2023-10-08T10:05:55;102358.88;;;17.09;68.17
9110;BME280;4590;51.462;6.692;2023-10-08T10:08:25;102363.63;;;17.09;69.31
9110;BME280;4590;51.462;6.692;2023-10-08T10:10:57;102362.59;;;16.91;70.44
9110;BME280;4590;51.462;6.692;2023-10-08T10:13:23;102368.97;;;17.05;69.68
9110;BME280;4590;51.462;6.692;2023-10-08T10:15:52;102364.66;;;17.13;68.93
9110;BME280;4590;51.462;6.692;2023-10-08T10:18:28;102357.31;;;17.17;68.91
9110;BME280;4590;51.462;6.692;2023-10-08T10:21:00;102365.25;;;17.24;68.04
9110;BME280;4590;51.462;6.692;2023-10-08T10:26:01;102358.97;;;17.18;68.80
9110;BME280;4590;51.462;6.692;2023-10-08T10:28:27;102365.47;;;17.13;68.68
9110;BME280;4590;51.462;6.692;2023-10-08T10:30:54;102374.53;;;17.19;67.70
9110;BME280;4590;51.462;6.692;2023-10-08T10:33:20;102371.63;;;17.24;67.40
9110;BME280;4590;51.462;6.692;2023-10-08T10:35:49;102375.81;;;16.99;69.64
9110;BME280;4590;51.462;6.692;2023-10-08T10:38:18;102373.81;;;17.13;68.94
9110;BME280;4590;51.462;6.692;2023-10-08T10:40:43;102380.94;;;16.92;69.59
9110;BME280;4590;51.462;6.692;2023-10-08T10:43:22;102388.16;;;16.93;69.93
9110;BME280;4590;51.462;6.692;2023-10-08T10:45:51;102391.66;;;16.99;69.22
9110;BME280;4590;51.462;6.692;2023-10-08T10:48:20;102394.75;;;16.97;68.70
9110;BME280;4590;51.462;6.692;2023-10-08T10:50:45;102385.28;;;16.98;68.93
9110;BME280;4590;51.462;6.692;2023-10-08T10:53:37;102393.31;;;17.00;68.29
9110;BME280;4590;51.462;6.692;2023-10-08T10:56:21;102396.28;;;16.90;68.82
9110;BME280;4590;51.462;6.692;2023-10-08T10:58:58;102387.22;;;16.98;68.46
9110;BME280;4590;51.462;6.692;2023-10-08T11:01:26;102384.94;;;16.86;69.51
9110;BME280;4590;51.462;6.692;2023-10-08T11:03:55;102393.28;;;16.86;69.96
9110;BME280;4590;51.462;6.692;2023-10-08T11:06:22;102395.13;;;17.04;68.73
9110;BME280;4590;51.462;6.692;2023-10-08T11:08:51;102397.84;;;16.96;68.81
9110;BME280;4590;51.462;6.692;2023-10-08T11:11:17;102387.31;;;17.06;68.47
9110;BME280;4590;51.462;6.692;2023-10-08T11:13:43;102388.97;;;17.07;68.49
9110;BME280;4590;51.462;6.692;2023-10-08T11:16:12;102387.94;;;17.03;68.49
9110;BME280;4590;51.462;6.692;2023-10-08T11:18:42;102389.72;;;16.99;68.21
9110;BME280;4590;51.462;6.692;2023-10-08T11:21:09;102383.72;;;17.06;68.19
9110;BME280;4590;51.462;6.692;2023-10-08T11:23:49;102378.47;;;16.91;68.60
9110;BME280;4590;51.462;6.692;2023-10-08T11:26:18;102384.03;;;16.91;68.54
9110;BME280;4590;51.462;6.692;2023-10-08T11:28:44;102382.28;;;16.95;68.55
9110;BME280;4590;51.462;6.692;2023-10-08T11:31:13;102385.69;;;16.92;68.77
9110;BME280;4590;51.462;6.692;2023-10-08T11:33:42;102396.59;;;16.88;68.88
9110;BME280;4590;51.462;6.692;2023-10-08T11:36:08;102382.59;;;16.93;68.69
9110;BME280;4590;51.462;6.692;2023-10-08T11:38:53;102380.84;;;16.97;68.50
9110;BME280;4590;51.462;6.692;2023-10-08T11:41:19;102375.16;;;17.02;69.26
9110;BME280;4590;51.462;6.692;2023-10-08T11:43:50;102362.81;;;16.95;68.59
9110;BME280;4590;51.462;6.692;2023-10-08T11:46:22;102360.00;;;17.22;67.61
9110;BME280;4590;51.462;6.692;2023-10-08T11:48:50;102360.72;;;17.28;67.31
9110;BME280;4590;51.462;6.692;2023-10-08T11:51:15;102352.22;;;17.33;66.62
9110;BME280;4590;51.462;6.692;2023-10-08T11:53:42;102356.25;;;17.40;66.66
9110;BME280;4590;51.462;6.692;2023-10-08T11:56:09;102347.97;;;17.49;66.32
9110;BME280;4590;51.462;6.692;2023-10-08T11:58:38;102345.56;;;17.56;66.05
9110;BME280;4590;51.462;6.692;2023-10-08T12:01:03;102348.72;;;17.63;65.56
9110;BME280;4590;51.462;6.692;2023-10-08T12:03:28;102352.16;;;17.74;65.79
9110;BME280;4590;51.462;6.692;2023-10-08T12:05:54;102353.78;;;17.75;65.00
9110;BME280;4590;51.462;6.692;2023-10-08T12:08:24;102347.41;;;17.74;64.89
9110;BME280;4590;51.462;6.692;2023-10-08T12:10:52;102351.88;;;17.84;64.27
9110;BME280;4590;51.462;6.692;2023-10-08T12:13:19;102342.06;;;17.86;64.12
9110;BME280;4590;51.462;6.692;2023-10-08T12:15:49;102344.84;;;17.64;64.53
9110;BME280;4590;51.462;6.692;2023-10-08T12:18:15;102345.13;;;17.76;64.70
9110;BME280;4590;51.462;6.692;2023-10-08T12:20:43;102340.38;;;17.77;64.65
9110;BME280;4590;51.462;6.692;2023-10-08T12:23:09;102344.31;;;17.76;64.56
9110;BME280;4590;51.462;6.692;2023-10-08T12:25:36;102346.78;;;17.77;63.69
9110;BME280;4590;51.462;6.692;2023-10-08T12:28:02;102340.69;;;17.75;64.42
9110;BME280;4590;51.462;6.692;2023-10-08T12:30:29;102336.00;;;17.84;64.06
9110;BME280;4590;51.462;6.692;2023-10-08T12:32:56;102328.41;;;17.76;64.27
9110;BME280;4590;51.462;6.692;2023-10-08T12:35:22;102321.63;;;17.91;64.00
9110;BME280;4590;51.462;6.692;2023-10-08T12:37:49;102321.16;;;17.98;64.10
9110;BME280;4590;51.462;6.692;2023-10-08T12:40:14;102327.00;;;17.87;63.51
9110;BME280;4590;51.462;6.692;2023-10-08T12:42:51;102322.97;;;17.94;63.88
9110;BME280;4590;51.462;6.692;2023-10-08T12:45:16;102315.47;;;18.03;63.89
9110;BME280;4590;51.462;6.692;2023-10-08T12:47:52;102312.81;;;17.98;63.17
9110;BME280;4590;51.462;6.692;2023-10-08T12:50:17;102303.31;;;17.99;63.47
9110;BME280;4590;51.462;6.692;2023-10-08T12:52:48;102320.84;;;17.99;63.81
9110;BME280;4590;51.462;6.692;2023-10-08T12:55:18;102320.72;;;18.04;63.95
9110;BME280;4590;51.462;6.692;2023-10-08T12:57:44;102322.72;;;18.12;63.90
9110;BME280;4590;51.462;6.692;2023-10-08T13:00:14;102311.91;;;18.11;63.29
9110;BME280;4590;51.462;6.692;2023-10-08T13:02:39;102305.06;;;18.17;63.33
9110;BME280;4590;51.462;6.692;2023-10-08T13:05:07;102296.53;;;18.13;62.71
9110;BME280;4590;51.462;6.692;2023-10-08T13:07:40;102281.41;;;18.06;63.24
9110;BME280;4590;51.462;6.692;2023-10-08T13:10:08;102300.91;;;18.06;62.96
9110;BME280;4590;51.462;6.692;2023-10-08T13:12:36;102291.59;;;18.10;63.06
9110;BME280;4590;51.462;6.692;2023-10-08T13:15:02;102292.59;;;18.14;62.99
9110;BME280;4590;51.462;6.692;2023-10-08T13:17:31;102276.19;;;18.13;62.83
9110;BME280;4590;51.462;6.692;2023-10-08T13:19:56;102265.84;;;18.05;63.20
9110;BME280;4590;51.462;6.692;2023-10-08T13:22:21;102276.50;;;18.11;63.36
9110;BME280;4590;51.462;6.692;2023-10-08T13:24:49;102276.88;;;18.10;63.43
9110;BME280;4590;51.462;6.692;2023-10-08T13:27:14;102266.19;;;18.12;63.31